sensor_id;sensor_type;location;lat;lon;timestamp;pressure;altitude;pressure_sealevel;temperature;humidity
44351;BME280;62766;62.622;17.912;2023-03-25T00:00:25;98667.96;;;-1.81;56.78
44351;BME280;62766;62.622;17.912;2023-03-25T00:02:53;98669.12;;;-1.97;56.54
44351;BME280;62766;62.622;17.912;2023-03-25T00:05:22;98674.56;;;-1.89;56.68
44351;BME280;62766;62.622;17.912;2023-03-25T00:07:51;98677.30;;;-1.83;56.93
44351;BME280;62766;62.622;17.912;2023-03-25T00:10:19;98681.81;;;-1.89;57.11
44351;BME280;62766;62.622;17.912;2023-03-25T00:12:47;98682.35;;;-1.81;57.17
44351;BME280;62766;62.622;17.912;2023-03-25T00:15:16;98684.49;;;-2.06;56.95
44351;BME280;62766;62.622;17.912;2023-03-25T00:17:45;98693.34;;;-1.88;57.22
44351;BME280;62766;62.622;17.912;2023-03-25T00:20:13;98694.35;;;-1.98;57.15
44351;BME280;62766;62.622;17.912;2023-03-25T00:22:42;98695.35;;;-2.03;57.47
44351;BME280;62766;62.622;17.912;2023-03-25T00:25:12;98690.83;;;-2.01;57.50
44351;BME280;62766;62.622;17.912;2023-03-25T00:27:40;98700.01;;;-2.10;57.40
44351;BME280;62766;62.622;17.912;2023-03-25T00:30:10;98699.94;;;-2.00;57.28
44351;BME280;62766;62.622;17.912;2023-03-25T00:32:39;98699.55;;;-2.17;57.27
44351;BME280;62766;62.622;17.912;2023-03-25T00:35:08;98699.82;;;-2.02;57.25
44351;BME280;62766;62.622;17.912;2023-03-25T00:37:36;98700.46;;;-2.04;57.28
44351;BME280;62766;62.622;17.912;2023-03-25T00:40:07;98706.90;;;-2.10;57.24
44351;BME280;62766;62.622;17.912;2023-03-25T00:42:35;98703.24;;;-2.09;57.15
44351;BME280;62766;62.622;17.912;2023-03-25T00:45:05;98705.92;;;-2.10;56.73
44351;BME280;62766;62.622;17.912;2023-03-25T00:47:34;98709.64;;;-2.10;56.45
44351;BME280;62766;62.622;17.912;2023-03-25T00:50:03;98705.73;;;-2.12;56.37
44351;BME280;62766;62.622;17.912;2023-03-25T00:52:31;98705.14;;;-2.02;56.20
44351;BME280;62766;62.622;17.912;2023-03-25T00:55:00;98711.11;;;-2.13;55.88
44351;BME280;62766;62.622;17.912;2023-03-25T00:57:29;98712.11;;;-2.32;55.59
44351;BME280;62766;62.622;17.912;2023-03-25T00:59:57;98720.08;;;-2.27;55.58
44351;BME280;62766;62.622;17.912;2023-03-25T01:02:26;98725.20;;;-2.20;55.32
44351;BME280;62766;62.622;17.912;2023-03-25T01:04:54;98727.01;;;-2.19;55.24
44351;BME280;62766;62.622;17.912;2023-03-25T01:07:23;98727.88;;;-2.29;55.22
44351;BME280;62766;62.622;17.912;2023-03-25T01:09:51;98734.48;;;-2.36;55.21
44351;BME280;62766;62.622;17.912;2023-03-25T01:12:20;98737.80;;;-2.43;55.19
44351;BME280;62766;62.622;17.912;2023-03-25T01:14:48;98737.24;;;-2.29;55.46
44351;BME280;62766;62.622;17.912;2023-03-25T01:17:17;98745.16;;;-2.24;55.44
44351;BME280;62766;62.622;17.912;2023-03-25T01:19:45;98745.83;;;-2.32;55.47
44351;BME280;62766;62.622;17.912;2023-03-25T01:22:14;98749.23;;;-2.36;55.34
44351;BME280;62766;62.622;17.912;2023-03-25T01:24:43;98750.73;;;-2.35;55.27
44351;BME280;62766;62.622;17.912;2023-03-25T01:27:11;98749.47;;;-2.55;54.97
44351;BME280;62766;62.622;17.912;2023-03-25T01:29:40;98757.11;;;-2.42;55.10
44351;BME280;62766;62.622;17.912;2023-03-25T01:32:08;98755.26;;;-2.60;54.77
44351;BME280;62766;62.622;17.912;2023-03-25T01:34:37;98761.01;;;-2.45;54.84
44351;BME280;62766;62.622;17.912;2023-03-25T01:37:05;98759.17;;;-2.53;54.79
44351;BME280;62766;62.622;17.912;2023-03-25T01:39:34;98760.24;;;-2.64;54.45
44351;BME280;62766;62.622;17.912;2023-03-25T01:42:03;98764.72;;;-2.65;54.48
44351;BME280;62766;62.622;17.912;2023-03-25T01:45:23;98766.07;;;-2.71;54.62
44351;BME280;62766;62.622;17.912;2023-03-25T01:47:59;98768.93;;;-2.83;54.62
44351;BME280;62766;62.622;17.912;2023-03-25T01:50:30;98774.83;;;-2.83;54.57
44351;BME280;62766;62.622;17.912;2023-03-25T01:53:00;98781.94;;;-2.91;54.65
44351;BME280;62766;62.622;17.912;2023-03-25T01:55:33;98778.05;;;-2.77;54.21
44351;BME280;62766;62.622;17.912;2023-03-25T01:58:03;98784.16;;;-2.96;54.37
44351;BME280;62766;62.622;17.912;2023-03-25T02:00:36;98788.77;;;-3.08;54.52
44351;BME280;62766;62.622;17.912;2023-03-25T02:03:06;98788.73;;;-3.11;54.60
44351;BME280;62766;62.622;17.912;2023-03-25T02:05:39;98793.07;;;-2.98;54.39
44351;BME280;62766;62.622;17.912;2023-03-25T02:08:09;98795.04;;;-3.11;54.28
44351;BME280;62766;62.622;17.912;2023-03-25T02:10:38;98801.88;;;-3.18;54.40
44351;BME280;62766;62.622;17.912;2023-03-25T02:13:06;98812.60;;;-3.18;54.49
44351;BME280;62766;62.622;17.912;2023-03-25T02:15:52;98815.22;;;-3.53;54.26
44351;BME280;62766;62.622;17.912;2023-03-25T02:18:33;98821.01;;;-3.43;54.05
44351;BME280;62766;62.622;17.912;2023-03-25T02:21:25;98824.93;;;-3.65;54.42
44351;BME280;62766;62.622;17.912;2023-03-25T02:28:54;98839.87;;;-3.80;54.31
44351;BME280;62766;62.622;17.912;2023-03-25T02:31:42;98844.21;;;-3.76;54.16
44351;BME280;62766;62.622;17.912;2023-03-25T02:34:23;98846.15;;;-3.86;54.28
44351;BME280;62766;62.622;17.912;2023-03-25T02:37:28;98847.80;;;-3.81;54.15
44351;BME280;62766;62.622;17.912;2023-03-25T02:40:05;98848.85;;;-3.82;54.01
44351;BME280;62766;62.622;17.912;2023-03-25T02:42:38;98854.06;;;-3.99;54.14
44351;BME280;62766;62.622;17.912;2023-03-25T02:45:10;98859.27;;;-4.12;54.23
44351;BME280;62766;62.622;17.912;2023-03-25T02:47:45;98862.64;;;-4.02;54.33
44351;BME280;62766;62.622;17.912;2023-03-25T02:50:19;98866.22;;;-4.09;54.28
44351;BME280;62766;62.622;17.912;2023-03-25T02:52:53;98866.39;;;-4.08;54.45
44351;BME280;62766;62.622;17.912;2023-03-25T02:55:24;98871.20;;;-4.21;54.55
44351;BME280;62766;62.622;17.912;2023-03-25T02:57:56;98874.73;;;-4.19;54.59
44351;BME280;62766;62.622;17.912;2023-03-25T03:00:28;98880.22;;;-4.27;54.50
44351;BME280;62766;62.622;17.912;2023-03-25T03:03:00;98885.13;;;-4.29;54.69
44351;BME280;62766;62.622;17.912;2023-03-25T03:05:30;98885.50;;;-4.40;54.79
44351;BME280;62766;62.622;17.912;2023-03-25T03:08:08;98894.47;;;-4.51;54.96
44351;BME280;62766;62.622;17.912;2023-03-25T03:10:47;98895.43;;;-4.50;54.97
44351;BME280;62766;62.622;17.912;2023-03-25T03:13:23;98898.11;;;-4.50;55.02
44351;BME280;62766;62.622;17.912;2023-03-25T03:16:00;98901.49;;;-4.47;54.98
44351;BME280;62766;62.622;17.912;2023-03-25T03:18:43;98908.27;;;-4.51;55.07
44351;BME280;62766;62.622;17.912;2023-03-25T03:21:17;98906.69;;;-4.56;55.18
44351;BME280;62766;62.622;17.912;2023-03-25T03:23:53;98907.54;;;-4.53;55.30
44351;BME280;62766;62.622;17.912;2023-03-25T03:26:30;98912.63;;;-4.62;55.33
44351;BME280;62766;62.622;17.912;2023-03-25T03:29:05;98914.59;;;-4.62;55.36
44351;BME280;62766;62.622;17.912;2023-03-25T03:31:42;98924.41;;;-4.66;55.44
44351;BME280;62766;62.622;17.912;2023-03-25T03:34:17;98929.38;;;-4.68;55.32
44351;BME280;62766;62.622;17.912;2023-03-25T03:36:50;98927.04;;;-4.83;55.43
44351;BME280;62766;62.622;17.912;2023-03-25T03:39:22;98931.03;;;-4.88;55.35
44351;BME280;62766;62.622;17.912;2023-03-25T03:41:54;98932.95;;;-4.87;55.22
44351;BME280;62766;62.622;17.912;2023-03-25T03:44:29;98935.00;;;-4.87;55.11
44351;BME280;62766;62.622;17.912;2023-03-25T03:47:03;98935.20;;;-4.76;55.04
44351;BME280;62766;62.622;17.912;2023-03-25T03:49:38;98939.10;;;-4.84;55.01
44351;BME280;62766;62.622;17.912;2023-03-25T03:52:11;98942.15;;;-4.92;55.02
44351;BME280;62766;62.622;17.912;2023-03-25T03:54:44;98947.92;;;-4.97;54.94
44351;BME280;62766;62.622;17.912;2023-03-25T03:57:18;98949.08;;;-4.94;54.93
44351;BME280;62766;62.622;17.912;2023-03-25T03:59:54;98946.61;;;-5.02;54.75
44351;BME280;62766;62.622;17.912;2023-03-25T04:02:27;98956.93;;;-5.03;54.88
44351;BME280;62766;62.622;17.912;2023-03-25T04:04:58;98960.28;;;-5.11;54.92
44351;BME280;62766;62.622;17.912;2023-03-25T04:07:32;98964.82;;;-5.15;55.12
44351;BME280;62766;62.622;17.912;2023-03-25T04:10:09;98966.55;;;-5.26;55.12
44351;BME280;62766;62.622;17.912;2023-03-25T04:12:41;98967.15;;;-5.25;55.08
44351;BME280;62766;62.622;17.912;2023-03-25T04:15:12;98965.17;;;-5.17;55.11
44351;BME280;62766;62.622;17.912;2023-03-25T04:17:42;98965.45;;;-5.19;55.08
44351;BME280;62766;62.622;17.912;2023-03-25T04:20:13;98968.05;;;-5.29;55.08
44351;BME280;62766;62.622;17.912;2023-03-25T04:22:42;98967.89;;;-5.19;55.10
44351;BME280;62766;62.622;17.912;2023-03-25T04:25:12;98973.84;;;-5.23;54.76
44351;BME280;62766;62.622;17.912;2023-03-25T04:27:41;98973.17;;;-5.26;54.80
44351;BME280;62766;62.622;17.912;2023-03-25T04:30:13;98974.71;;;-5.18;54.78
44351;BME280;62766;62.622;17.912;2023-03-25T04:32:42;98973.93;;;-5.18;54.83
44351;BME280;62766;62.622;17.912;2023-03-25T04:35:11;98975.87;;;-5.39;54.79
44351;BME280;62766;62.622;17.912;2023-03-25T04:37:39;98973.96;;;-5.26;54.86
44351;BME280;62766;62.622;17.912;2023-03-25T04:40:09;98975.00;;;-5.39;54.75
44351;BME280;62766;62.622;17.912;2023-03-25T04:42:39;98981.46;;;-5.24;54.66
44351;BME280;62766;62.622;17.912;2023-03-25T04:45:08;98982.05;;;-5.37;54.78
44351;BME280;62766;62.622;17.912;2023-03-25T04:47:36;98987.79;;;-5.46;54.77
44351;BME280;62766;62.622;17.912;2023-03-25T04:50:06;98987.37;;;-5.33;54.70
44351;BME280;62766;62.622;17.912;2023-03-25T04:52:35;98991.76;;;-5.31;54.61
44351;BME280;62766;62.622;17.912;2023-03-25T04:55:04;98992.83;;;-5.22;54.56
44351;BME280;62766;62.622;17.912;2023-03-25T04:57:32;98993.45;;;-5.14;54.49
44351;BME280;62766;62.622;17.912;2023-03-25T05:00:01;98999.67;;;-5.11;54.41
44351;BME280;62766;62.622;17.912;2023-03-25T05:03:24;99008.79;;;-5.04;54.20
44351;BME280;62766;62.622;17.912;2023-03-25T05:05:53;99011.16;;;-5.01;54.07
44351;BME280;62766;62.622;17.912;2023-03-25T05:08:22;99008.29;;;-4.93;53.79
44351;BME280;62766;62.622;17.912;2023-03-25T05:10:51;99009.08;;;-4.82;53.56
44351;BME280;62766;62.622;17.912;2023-03-25T05:13:20;99015.84;;;-4.82;53.42
44351;BME280;62766;62.622;17.912;2023-03-25T05:15:48;99016.13;;;-4.68;53.46
44351;BME280;62766;62.622;17.912;2023-03-25T05:18:17;99021.60;;;-4.65;53.49
44351;BME280;62766;62.622;17.912;2023-03-25T05:20:46;99023.63;;;-4.59;53.28
44351;BME280;62766;62.622;17.912;2023-03-25T05:23:15;99027.16;;;-4.51;52.99
44351;BME280;62766;62.622;17.912;2023-03-25T05:25:43;99025.92;;;-4.43;52.94
44351;BME280;62766;62.622;17.912;2023-03-25T05:28:12;99032.03;;;-4.58;52.76
44351;BME280;62766;62.622;17.912;2023-03-25T05:30:43;99041.42;;;-4.49;52.71
44351;BME280;62766;62.622;17.912;2023-03-25T05:33:14;99039.66;;;-4.57;52.78
44351;BME280;62766;62.622;17.912;2023-03-25T05:35:44;99041.92;;;-4.51;52.80
44351;BME280;62766;62.622;17.912;2023-03-25T05:38:12;99047.37;;;-4.51;52.76
44351;BME280;62766;62.622;17.912;2023-03-25T05:40:40;99053.84;;;-4.61;52.79
44351;BME280;62766;62.622;17.912;2023-03-25T05:43:09;99060.88;;;-4.65;52.89
44351;BME280;62766;62.622;17.912;2023-03-25T05:45:37;99064.00;;;-4.57;52.80
44351;BME280;62766;62.622;17.912;2023-03-25T05:48:06;99062.27;;;-4.42;52.81
44351;BME280;62766;62.622;17.912;2023-03-25T05:50:35;99062.13;;;-4.30;52.83
44351;BME280;62766;62.622;17.912;2023-03-25T05:53:03;99063.35;;;-4.19;52.58
44351;BME280;62766;62.622;17.912;2023-03-25T05:55:32;99062.96;;;-4.03;52.16
44351;BME280;62766;62.622;17.912;2023-03-25T05:58:01;99065.02;;;-3.78;51.75
44351;BME280;62766;62.622;17.912;2023-03-25T06:00:29;99064.01;;;-3.82;51.47
44351;BME280;62766;62.622;17.912;2023-03-25T06:02:58;99063.45;;;-3.74;51.20
44351;BME280;62766;62.622;17.912;2023-03-25T06:05:27;99066.18;;;-3.63;51.04
44351;BME280;62766;62.622;17.912;2023-03-25T06:07:55;99067.12;;;-3.62;51.06
44351;BME280;62766;62.622;17.912;2023-03-25T06:10:25;99060.40;;;-3.62;50.97
44351;BME280;62766;62.622;17.912;2023-03-25T06:12:54;99060.71;;;-3.49;50.91
44351;BME280;62766;62.622;17.912;2023-03-25T06:15:24;99063.80;;;-3.29;50.93
44351;BME280;62766;62.622;17.912;2023-03-25T06:17:54;99070.14;;;-3.25;50.54
44351;BME280;62766;62.622;17.912;2023-03-25T06:20:22;99076.42;;;-3.02;50.10
44351;BME280;62766;62.622;17.912;2023-03-25T06:22:51;99080.02;;;-3.00;50.13
44351;BME280;62766;62.622;17.912;2023-03-25T06:25:19;99085.90;;;-2.92;49.94
44351;BME280;62766;62.622;17.912;2023-03-25T06:27:49;99094.67;;;-2.84;49.36
44351;BME280;62766;62.622;17.912;2023-03-25T06:30:19;99091.13;;;-2.81;49.39
44351;BME280;62766;62.622;17.912;2023-03-25T06:32:48;99097.59;;;-2.86;49.01
44351;BME280;62766;62.622;17.912;2023-03-25T06:35:18;99105.25;;;-2.77;48.90
44351;BME280;62766;62.622;17.912;2023-03-25T06:37:46;99111.77;;;-2.62;48.78
44351;BME280;62766;62.622;17.912;2023-03-25T06:40:14;99112.96;;;-2.71;48.47
44351;BME280;62766;62.622;17.912;2023-03-25T06:42:43;99120.48;;;-2.70;48.61
44351;BME280;62766;62.622;17.912;2023-03-25T06:45:12;99124.63;;;-2.89;48.37
44351;BME280;62766;62.622;17.912;2023-03-25T06:47:40;99128.04;;;-2.93;48.26
44351;BME280;62766;62.622;17.912;2023-03-25T06:50:09;99132.61;;;-2.98;48.44
44351;BME280;62766;62.622;17.912;2023-03-25T06:52:37;99133.28;;;-3.07;48.65
44351;BME280;62766;62.622;17.912;2023-03-25T06:55:07;99136.54;;;-3.01;48.80
44351;BME280;62766;62.622;17.912;2023-03-25T06:57:36;99133.21;;;-3.16;48.92
44351;BME280;62766;62.622;17.912;2023-03-25T07:00:07;99138.34;;;-3.10;49.19
44351;BME280;62766;62.622;17.912;2023-03-25T07:02:36;99143.39;;;-2.93;48.94
44351;BME280;62766;62.622;17.912;2023-03-25T07:05:05;99141.83;;;-2.82;49.01
44351;BME280;62766;62.622;17.912;2023-03-25T07:07:40;99138.56;;;-2.56;48.82
44351;BME280;62766;62.622;17.912;2023-03-25T07:10:10;99142.62;;;-2.30;48.72
44351;BME280;62766;62.622;17.912;2023-03-25T07:12:39;99144.50;;;-1.78;47.94
44351;BME280;62766;62.622;17.912;2023-03-25T07:15:08;99144.54;;;-1.65;46.81
44351;BME280;62766;62.622;17.912;2023-03-25T07:17:36;99148.16;;;-1.44;46.93
44351;BME280;62766;62.622;17.912;2023-03-25T07:20:06;99148.78;;;-1.15;46.89
44351;BME280;62766;62.622;17.912;2023-03-25T07:22:35;99144.04;;;-0.78;46.39
44351;BME280;62766;62.622;17.912;2023-03-25T07:25:04;99135.30;;;-0.76;45.00
44351;BME280;62766;62.622;17.912;2023-03-25T07:27:32;99140.75;;;-0.89;44.99
44351;BME280;62766;62.622;17.912;2023-03-25T07:30:01;99140.19;;;-0.96;44.71
44351;BME280;62766;62.622;17.912;2023-03-25T07:32:29;99141.53;;;-1.08;45.29
44351;BME280;62766;62.622;17.912;2023-03-25T07:34:58;99144.43;;;-1.13;44.85
44351;BME280;62766;62.622;17.912;2023-03-25T07:37:26;99145.95;;;-1.41;45.03
44351;BME280;62766;62.622;17.912;2023-03-25T07:39:55;99150.64;;;-1.63;45.25
44351;BME280;62766;62.622;17.912;2023-03-25T07:42:24;99158.16;;;-1.73;45.59
44351;BME280;62766;62.622;17.912;2023-03-25T07:44:54;99162.79;;;-1.92;45.77
44351;BME280;62766;62.622;17.912;2023-03-25T07:47:23;99166.97;;;-2.20;46.26
44351;BME280;62766;62.622;17.912;2023-03-25T07:49:51;99168.93;;;-2.21;46.80
44351;BME280;62766;62.622;17.912;2023-03-25T07:52:19;99166.91;;;-1.91;46.77
44351;BME280;62766;62.622;17.912;2023-03-25T07:54:48;99163.17;;;-1.58;46.67
44351;BME280;62766;62.622;17.912;2023-03-25T07:57:17;99167.04;;;-0.98;46.70
44351;BME280;62766;62.622;17.912;2023-03-25T07:59:45;99167.99;;;-0.50;45.91
44351;BME280;62766;62.622;17.912;2023-03-25T08:02:14;99171.28;;;-0.19;45.33
44351;BME280;62766;62.622;17.912;2023-03-25T08:04:42;99176.17;;;0.03;44.54
44351;BME280;62766;62.622;17.912;2023-03-25T08:07:11;99182.65;;;0.27;44.17
44351;BME280;62766;62.622;17.912;2023-03-25T08:09:40;99186.09;;;0.26;43.75
44351;BME280;62766;62.622;17.912;2023-03-25T08:12:08;99194.70;;;0.28;42.84
44351;BME280;62766;62.622;17.912;2023-03-25T08:14:36;99206.38;;;0.10;42.83
44351;BME280;62766;62.622;17.912;2023-03-25T08:17:06;99207.07;;;0.06;42.36
44351;BME280;62766;62.622;17.912;2023-03-25T08:19:34;99209.58;;;-0.20;43.15
44351;BME280;62766;62.622;17.912;2023-03-25T08:22:02;99213.84;;;-0.38;42.98
44351;BME280;62766;62.622;17.912;2023-03-25T08:24:31;99223.06;;;-0.53;43.32
44351;BME280;62766;62.622;17.912;2023-03-25T08:26:59;99230.76;;;-0.89;43.27
44351;BME280;62766;62.622;17.912;2023-03-25T08:29:28;99234.45;;;-1.24;43.56
44351;BME280;62766;62.622;17.912;2023-03-25T08:31:56;99241.74;;;-1.55;44.06
44351;BME280;62766;62.622;17.912;2023-03-25T08:34:26;99237.87;;;-1.45;44.55
44351;BME280;62766;62.622;17.912;2023-03-25T08:36:53;99245.29;;;-1.56;44.57
44351;BME280;62766;62.622;17.912;2023-03-25T08:39:22;99251.35;;;-1.40;44.80
44351;BME280;62766;62.622;17.912;2023-03-25T08:41:50;99252.82;;;-1.14;44.41
44351;BME280;62766;62.622;17.912;2023-03-25T08:44:19;99255.82;;;-1.07;44.38
44351;BME280;62766;62.622;17.912;2023-03-25T08:46:48;99261.01;;;-1.01;44.40
44351;BME280;62766;62.622;17.912;2023-03-25T08:49:16;99265.48;;;-0.83;44.38
44351;BME280;62766;62.622;17.912;2023-03-25T08:51:45;99264.84;;;-0.73;44.06
44351;BME280;62766;62.622;17.912;2023-03-25T08:54:13;99269.96;;;-0.71;44.34
44351;BME280;62766;62.622;17.912;2023-03-25T08:56:42;99266.83;;;-0.72;43.36
44351;BME280;62766;62.622;17.912;2023-03-25T08:59:11;99267.92;;;-0.67;43.92
44351;BME280;62766;62.622;17.912;2023-03-25T09:01:39;99270.30;;;-0.51;44.00
44351;BME280;62766;62.622;17.912;2023-03-25T09:04:08;99273.52;;;-0.43;43.53
44351;BME280;62766;62.622;17.912;2023-03-25T09:06:37;99271.77;;;-0.32;43.18
44351;BME280;62766;62.622;17.912;2023-03-25T09:09:05;99278.57;;;-0.06;43.32
44351;BME280;62766;62.622;17.912;2023-03-25T09:11:35;99278.91;;;0.03;43.04
44351;BME280;62766;62.622;17.912;2023-03-25T09:14:04;99283.11;;;0.41;43.03
44351;BME280;62766;62.622;17.912;2023-03-25T09:16:33;99283.39;;;0.57;42.70
44351;BME280;62766;62.622;17.912;2023-03-25T09:19:01;99285.31;;;0.64;42.38
44351;BME280;62766;62.622;17.912;2023-03-25T09:21:30;99292.95;;;0.89;41.58
44351;BME280;62766;62.622;17.912;2023-03-25T09:23:58;99300.91;;;1.17;40.94
44351;BME280;62766;62.622;17.912;2023-03-25T09:26:27;99294.26;;;1.36;40.27
44351;BME280;62766;62.622;17.912;2023-03-25T09:28:56;99289.92;;;1.75;40.24
44351;BME280;62766;62.622;17.912;2023-03-25T09:31:25;99296.61;;;2.08;39.62
44351;BME280;62766;62.622;17.912;2023-03-25T09:33:54;99306.06;;;2.07;39.46
44351;BME280;62766;62.622;17.912;2023-03-25T09:36:23;99309.18;;;2.31;39.29
44351;BME280;62766;62.622;17.912;2023-03-25T09:38:51;99307.82;;;2.48;38.89
44351;BME280;62766;62.622;17.912;2023-03-25T09:41:29;99308.18;;;2.71;39.00
44351;BME280;62766;62.622;17.912;2023-03-25T09:44:11;99311.49;;;2.85;38.05
44351;BME280;62766;62.622;17.912;2023-03-25T09:46:41;99316.61;;;2.69;37.73
44351;BME280;62766;62.622;17.912;2023-03-25T09:49:14;99319.63;;;2.54;37.04
44351;BME280;62766;62.622;17.912;2023-03-25T09:51:43;99314.50;;;2.53;37.58
44351;BME280;62766;62.622;17.912;2023-03-25T09:54:19;99319.99;;;2.42;37.22
44351;BME280;62766;62.622;17.912;2023-03-25T09:56:52;99327.33;;;2.52;37.18
44351;BME280;62766;62.622;17.912;2023-03-25T09:59:27;99328.43;;;2.62;36.78
44351;BME280;62766;62.622;17.912;2023-03-25T10:02:05;99331.37;;;2.65;36.86
44351;BME280;62766;62.622;17.912;2023-03-25T10:04:51;99335.50;;;2.87;36.53
44351;BME280;62766;62.622;17.912;2023-03-25T10:07:29;99334.07;;;3.00;36.22
44351;BME280;62766;62.622;17.912;2023-03-25T10:10:06;99333.13;;;3.13;35.44
44351;BME280;62766;62.622;17.912;2023-03-25T10:12:45;99332.51;;;3.20;35.04
44351;BME280;62766;62.622;17.912;2023-03-25T10:15:25;99338.09;;;3.08;35.06
44351;BME280;62766;62.622;17.912;2023-03-25T10:18:03;99338.97;;;3.05;34.95
44351;BME280;62766;62.622;17.912;2023-03-25T10:20:43;99344.15;;;2.88;35.07
44351;BME280;62766;62.622;17.912;2023-03-25T10:23:21;99346.13;;;3.09;35.39
44351;BME280;62766;62.622;17.912;2023-03-25T10:25:56;99346.32;;;3.35;35.08
44351;BME280;62766;62.622;17.912;2023-03-25T10:28:31;99347.36;;;3.61;34.98
44351;BME280;62766;62.622;17.912;2023-03-25T10:31:01;99350.56;;;3.86;34.55
44351;BME280;62766;62.622;17.912;2023-03-25T10:33:34;99351.30;;;3.95;33.95
44351;BME280;62766;62.622;17.912;2023-03-25T10:36:06;99352.31;;;3.85;33.80
44351;BME280;62766;62.622;17.912;2023-03-25T10:38:37;99353.07;;;3.92;34.40
44351;BME280;62766;62.622;17.912;2023-03-25T10:41:12;99359.70;;;4.06;34.06
44351;BME280;62766;62.622;17.912;2023-03-25T10:43:44;99359.30;;;4.19;33.93
44351;BME280;62766;62.622;17.912;2023-03-25T10:46:17;99360.22;;;4.39;33.25
44351;BME280;62766;62.622;17.912;2023-03-25T10:48:49;99358.72;;;4.42;32.94
44351;BME280;62766;62.622;17.912;2023-03-25T10:51:20;99361.20;;;4.53;33.27
44351;BME280;62766;62.622;17.912;2023-03-25T10:53:50;99362.63;;;4.50;33.68
44351;BME280;62766;62.622;17.912;2023-03-25T10:56:21;99362.24;;;4.64;33.51
44351;BME280;62766;62.622;17.912;2023-03-25T10:58:53;99364.50;;;4.57;33.39
44351;BME280;62766;62.622;17.912;2023-03-25T11:03:39;99370.88;;;4.55;33.61
44351;BME280;62766;62.622;17.912;2023-03-25T11:06:20;99375.83;;;4.50;33.18
44351;BME280;62766;62.622;17.912;2023-03-25T11:09:09;99372.56;;;4.61;33.74
44351;BME280;62766;62.622;17.912;2023-03-25T11:11:41;99375.77;;;4.92;33.14
44351;BME280;62766;62.622;17.912;2023-03-25T11:14:10;99376.14;;;4.94;33.02
44351;BME280;62766;62.622;17.912;2023-03-25T11:16:42;99377.46;;;5.00;32.83
44351;BME280;62766;62.622;17.912;2023-03-25T11:19:18;99379.13;;;5.04;33.34
44351;BME280;62766;62.622;17.912;2023-03-25T11:21:53;99377.55;;;5.04;32.39
44351;BME280;62766;62.622;17.912;2023-03-25T11:24:22;99377.86;;;5.17;32.60
44351;BME280;62766;62.622;17.912;2023-03-25T11:26:55;99381.13;;;5.23;32.37
44351;BME280;62766;62.622;17.912;2023-03-25T11:29:25;99381.70;;;5.06;31.89
44351;BME280;62766;62.622;17.912;2023-03-25T11:31:56;99382.74;;;5.15;31.94
44351;BME280;62766;62.622;17.912;2023-03-25T11:34:26;99384.98;;;5.40;31.86
44351;BME280;62766;62.622;17.912;2023-03-25T11:36:59;99386.78;;;5.14;31.92
44351;BME280;62766;62.622;17.912;2023-03-25T11:39:32;99391.04;;;5.07;32.00
44351;BME280;62766;62.622;17.912;2023-03-25T11:42:12;99390.27;;;5.14;32.18
44351;BME280;62766;62.622;17.912;2023-03-25T11:44:42;99391.57;;;5.39;31.50
44351;BME280;62766;62.622;17.912;2023-03-25T11:47:21;99395.74;;;5.21;31.90
44351;BME280;62766;62.622;17.912;2023-03-25T11:49:53;99398.47;;;5.38;31.86
44351;BME280;62766;62.622;17.912;2023-03-25T11:52:23;99403.22;;;5.33;31.43
44351;BME280;62766;62.622;17.912;2023-03-25T11:54:54;99405.15;;;5.24;31.72
44351;BME280;62766;62.622;17.912;2023-03-25T11:57:25;99405.67;;;5.48;31.78
44351;BME280;62766;62.622;17.912;2023-03-25T12:00:00;99407.26;;;5.42;31.17
44351;BME280;62766;62.622;17.912;2023-03-25T12:02:36;99405.75;;;5.31;31.35
44351;BME280;62766;62.622;17.912;2023-03-25T12:05:12;99404.88;;;5.45;31.50
44351;BME280;62766;62.622;17.912;2023-03-25T12:07:43;99406.34;;;5.23;31.48
44351;BME280;62766;62.622;17.912;2023-03-25T12:10:16;99410.97;;;5.14;31.35
44351;BME280;62766;62.622;17.912;2023-03-25T12:12:54;99408.60;;;5.13;31.46
44351;BME280;62766;62.622;17.912;2023-03-25T12:15:35;99410.79;;;5.12;31.16
44351;BME280;62766;62.622;17.912;2023-03-25T12:18:22;99413.19;;;5.06;31.97
44351;BME280;62766;62.622;17.912;2023-03-25T12:20:59;99415.84;;;4.92;32.22
44351;BME280;62766;62.622;17.912;2023-03-25T12:23:39;99419.23;;;5.11;32.39
44351;BME280;62766;62.622;17.912;2023-03-25T12:26:12;99418.88;;;5.18;31.83
44351;BME280;62766;62.622;17.912;2023-03-25T12:29:08;99417.68;;;5.02;31.86
44351;BME280;62766;62.622;17.912;2023-03-25T12:31:53;99417.88;;;4.76;32.09
44351;BME280;62766;62.622;17.912;2023-03-25T12:34:36;99415.01;;;4.76;32.12
44351;BME280;62766;62.622;17.912;2023-03-25T12:37:18;99413.17;;;4.70;32.06
44351;BME280;62766;62.622;17.912;2023-03-25T12:40:00;99417.14;;;4.46;32.42
44351;BME280;62766;62.622;17.912;2023-03-25T12:42:38;99415.70;;;4.25;32.49
44351;BME280;62766;62.622;17.912;2023-03-25T12:45:23;99420.02;;;4.31;33.02
44351;BME280;62766;62.622;17.912;2023-03-25T12:47:55;99414.67;;;4.47;32.57
44351;BME280;62766;62.622;17.912;2023-03-25T12:50:36;99416.91;;;4.27;32.49
44351;BME280;62766;62.622;17.912;2023-03-25T12:53:51;99416.84;;;4.34;32.33
44351;BME280;62766;62.622;17.912;2023-03-25T12:56:43;99419.28;;;4.59;32.31
44351;BME280;62766;62.622;17.912;2023-03-25T12:59:42;99419.23;;;4.73;31.89
44351;BME280;62766;62.622;17.912;2023-03-25T13:02:25;99419.31;;;4.84;32.03
44351;BME280;62766;62.622;17.912;2023-03-25T13:05:09;99417.53;;;4.84;32.25
44351;BME280;62766;62.622;17.912;2023-03-25T13:07:44;99420.78;;;4.73;32.09
44351;BME280;62766;62.622;17.912;2023-03-25T13:10:17;99422.46;;;4.83;32.09
44351;BME280;62766;62.622;17.912;2023-03-25T13:12:48;99423.76;;;4.93;31.62
44351;BME280;62766;62.622;17.912;2023-03-25T13:15:20;99422.72;;;4.85;31.63
44351;BME280;62766;62.622;17.912;2023-03-25T13:17:53;99424.98;;;5.15;31.26
44351;BME280;62766;62.622;17.912;2023-03-25T13:20:25;99425.97;;;5.16;31.06
44351;BME280;62766;62.622;17.912;2023-03-25T13:22:56;99428.63;;;5.07;30.87
44351;BME280;62766;62.622;17.912;2023-03-25T13:25:29;99427.30;;;5.15;31.11